Time;durP1;ratioP1;P1;durP2;ratioP2;P2;SDS_P1;SDS_P2;PMS_P1;PMS_P2;Temp;Humidity;BMP_temperature;BMP_pressure;BME280_temperature;BME280_humidity;BME280_pressure;Samples;Min_cycle;Max_cycle;Signal;HPM_P1;HPM_P2
2022/01/02 00:00:40;;;;;;;9.10;3.60;;;;;;;8.10;100.00;100966.53;5306676;28;20066;-77
2022/01/02 00:03:19;;;;;;;6.70;3.22;;;;;;;8.16;100.00;100963.81;5316332;27;20457;-78
2022/01/02 00:05:53;;;;;;;7.40;3.90;;;;;;;7.96;100.00;100963.34;5315723;27;20092;-77
2022/01/02 00:08:25;;;;;;;7.47;3.70;;;;;;;7.98;100.00;100965.91;5297034;28;20038;-78
2022/01/02 00:11:00;;;;;;;8.68;3.53;;;;;;;8.02;100.00;100962.38;5311317;27;20034;-77
2022/01/02 00:13:35;;;;;;;7.57;3.70;;;;;;;7.89;100.00;100953.91;5293481;28;20047;-77
2022/01/02 00:16:07;;;;;;;7.25;3.40;;;;;;;7.97;100.00;100946.84;5295068;28;20062;-77
2022/01/02 00:18:46;;;;;;;5.97;3.25;;;;;;;7.83;100.00;100946.22;5311509;28;20046;-77
2022/01/02 00:21:18;;;;;;;7.32;3.53;;;;;;;7.79;100.00;100943.72;5319034;27;20256;-77
2022/01/02 00:23:59;;;;;;;8.45;3.70;;;;;;;7.72;100.00;100937.75;5299000;28;20027;-78
2022/01/02 00:26:41;;;;;;;10.70;4.15;;;;;;;7.78;100.00;100937.66;5317488;27;20015;-77
2022/01/02 00:29:12;;;;;;;6.93;3.45;;;;;;;7.96;100.00;100921.69;5311809;28;20376;-77
2022/01/02 00:31:43;;;;;;;8.93;4.25;;;;;;;8.04;100.00;100908.53;5310015;27;20149;-77
2022/01/02 00:34:14;;;;;;;10.18;3.60;;;;;;;7.69;100.00;100898.78;5311010;27;20495;-77
2022/01/02 00:36:45;;;;;;;6.60;3.58;;;;;;;7.64;100.00;100886.75;5318427;27;20059;-76
2022/01/02 00:39:17;;;;;;;9.00;3.90;;;;;;;7.48;100.00;100900.94;5313986;27;20122;-77
2022/01/02 00:41:57;;;;;;;6.60;3.95;;;;;;;7.42;100.00;100894.13;5292408;28;20035;-76
2022/01/02 00:44:58;;;;;;;9.95;3.90;;;;;;;7.42;100.00;100888.91;5310299;28;20031;-77
2022/01/02 00:48:03;;;;;;;7.28;3.83;;;;;;;7.43;100.00;100888.03;5309691;27;20021;-76
2022/01/02 00:50:46;;;;;;;6.72;3.70;;;;;;;7.43;100.00;100887.16;5312871;27;20078;-77
2022/01/02 00:53:19;;;;;;;8.90;3.70;;;;;;;7.46;100.00;100887.97;5313061;27;20076;-77
2022/01/02 00:55:56;;;;;;;8.73;3.97;;;;;;;7.51;100.00;100875.75;5303682;27;20458;-77
2022/01/02 00:58:35;;;;;;;6.43;3.78;;;;;;;7.58;100.00;100877.34;5313369;27;20023;-77
2022/01/02 01:01:07;;;;;;;7.40;4.20;;;;;;;7.63;100.00;100879.84;5315027;27;20027;-77
2022/01/02 01:03:40;;;;;;;8.43;4.00;;;;;;;7.99;100.00;100858.31;5314665;27;20015;-78
2022/01/02 01:06:19;;;;;;;6.78;3.60;;;;;;;8.06;100.00;100852.94;5298304;27;20126;-78
2022/01/02 01:08:55;;;;;;;6.80;4.00;;;;;;;8.02;100.00;100848.69;5310403;27;20614;-78
2022/01/02 01:11:29;;;;;;;7.18;3.90;;;;;;;8.11;100.00;100830.31;5317256;27;20034;-76
2022/01/02 01:14:01;;;;;;;6.95;4.15;;;;;;;8.06;100.00;100834.72;5315102;27;20027;-77
2022/01/02 01:16:31;;;;;;;10.35;4.07;;;;;;;8.14;100.00;100840.63;5320542;27;20022;-78
2022/01/02 01:19:02;;;;;;;7.20;3.80;;;;;;;8.23;100.00;100835.25;5316633;27;20034;-78
2022/01/02 01:21:32;;;;;;;6.97;4.28;;;;;;;8.22;100.00;100836.13;5296224;27;20600;-77
2022/01/02 01:24:03;;;;;;;7.75;4.30;;;;;;;8.33;100.00;100838.50;5297304;27;20063;-77
2022/01/02 01:26:34;;;;;;;6.53;3.95;;;;;;;8.33;100.00;100823.75;5301737;27;20029;-78
2022/01/02 01:29:04;;;;;;;5.97;3.80;;;;;;;8.29;100.00;100806.50;5304928;27;20769;-77
2022/01/02 01:31:34;;;;;;;6.93;4.07;;;;;;;8.34;100.00;100809.84;5293357;27;20038;-76
2022/01/02 01:34:05;;;;;;;8.15;3.50;;;;;;;8.37;100.00;100814.13;5295303;27;20110;-78
2022/01/02 01:36:35;;;;;;;8.13;3.78;;;;;;;8.33;100.00;100812.47;5312362;27;20022;-77
2022/01/02 01:39:05;;;;;;;7.75;3.42;;;;;;;8.32;100.00;100810.75;5313731;27;20076;-77
2022/01/02 01:41:38;;;;;;;6.45;3.83;;;;;;;8.27;100.00;100815.22;5293428;27;20090;-76
2022/01/02 01:46:42;;;;;;;6.57;4.00;;;;;;;8.30;100.00;100813.41;5317367;27;20080;-77
2022/01/02 01:49:19;;;;;;;7.57;3.95;;;;;;;8.24;100.00;100823.09;5312856;27;20027;-76
2022/01/02 01:51:49;;;;;;;7.93;3.63;;;;;;;8.25;100.00;100828.25;5307634;27;20031;-77
2022/01/02 01:54:20;;;;;;;8.30;4.13;;;;;;;8.31;100.00;100817.72;5319204;27;20141;-77
2022/01/02 01:56:52;;;;;;;6.15;3.88;;;;;;;8.50;100.00;100800.78;5314292;27;20176;-77
2022/01/02 01:59:23;;;;;;;7.63;4.22;;;;;;;8.46;100.00;100796.56;5310141;27;20375;-77
2022/01/02 02:01:53;;;;;;;8.35;4.28;;;;;;;8.44;100.00;100790.53;5314495;27;20027;-78
2022/01/02 02:04:24;;;;;;;9.27;4.28;;;;;;;8.39;100.00;100794.13;5321399;27;20042;-79
2022/01/02 02:06:56;;;;;;;7.95;4.03;;;;;;;8.32;100.00;100777.78;5321615;27;20568;-79
2022/01/02 02:09:33;;;;;;;8.05;3.85;;;;;;;8.29;100.00;100775.25;5322569;27;20019;-79
2022/01/02 02:12:04;;;;;;;6.95;4.10;;;;;;;8.30;100.00;100769.16;5322831;27;20083;-79
2022/01/02 02:14:36;;;;;;;10.68;3.95;;;;;;;8.32;100.00;100769.09;5322088;27;20031;-79
2022/01/02 02:17:06;;;;;;;7.47;3.85;;;;;;;8.28;100.00;100773.53;5322519;27;20249;-79
2022/01/02 02:19:37;;;;;;;9.40;3.90;;;;;;;8.43;100.00;100785.34;5321643;27;20034;-78
2022/01/02 02:22:08;;;;;;;8.30;4.28;;;;;;;8.62;100.00;100791.81;5321164;27;20023;-78
2022/01/02 02:24:40;;;;;;;4.85;3.58;;;;;;;8.53;100.00;100792.91;5306723;27;20541;-78
2022/01/02 02:27:11;;;;;;;8.27;3.63;;;;;;;8.47;100.00;100782.63;5323523;27;20023;-78
2022/01/02 02:29:46;;;;;;;6.13;3.92;;;;;;;8.43;100.00;100786.22;5308832;27;20034;-79
2022/01/02 02:32:18;;;;;;;6.43;3.70;;;;;;;8.43;100.00;100778.41;5307694;27;20027;-77
2022/01/02 02:34:50;;;;;;;6.00;3.60;;;;;;;8.48;100.00;100779.13;5305835;27;20102;-79
2022/01/02 02:37:21;;;;;;;6.28;3.72;;;;;;;8.44;100.00;100784.44;5320906;27;20030;-79
2022/01/02 02:39:55;;;;;;;6.38;3.95;;;;;;;8.46;100.00;100796.56;5298767;27;20015;-78
2022/01/02 02:42:41;;;;;;;6.07;3.78;;;;;;;8.49;100.00;100796.47;5314289;27;20027;-78
2022/01/02 02:51:16;;;;;;;7.05;3.67;;;;;;;8.65;100.00;100790.00;5296640;27;20042;-78
2022/01/02 02:53:48;;;;;;;8.18;3.83;;;;;;;8.66;100.00;100781.28;5278652;27;20483;-78
2022/01/02 02:58:57;;;;;;;7.10;3.30;;;;;;;8.63;100.00;100783.09;5301280;27;20029;-78
2022/01/02 03:01:29;;;;;;;;;;;;;;;8.71;100.00;100776.81;5292960;27;20070;-77
2022/01/02 03:03:59;;;;;;;6.00;3.53;;;;;;;8.69;100.00;100773.41;5292498;27;19978;-78
2022/01/02 03:06:30;;;;;;;9.50;4.10;;;;;;;8.65;100.00;100774.38;5319673;27;20042;-78
2022/01/02 03:09:07;;;;;;;6.50;3.38;;;;;;;8.62;100.00;100764.03;5321037;27;20039;-79
2022/01/02 03:11:39;;;;;;;8.77;3.50;;;;;;;8.78;100.00;100748.84;5318833;27;20160;-79
2022/01/02 03:14:13;;;;;;;7.65;3.80;;;;;;;8.69;100.00;100760.38;5320758;27;20030;-79
2022/01/02 03:16:43;;;;;;;11.20;3.80;;;;;;;8.72;100.00;100773.31;5307766;27;20035;-78
2022/01/02 03:19:13;;;;;;;7.28;4.13;;;;;;;8.69;100.00;100776.00;5319920;27;20399;-78
2022/01/02 03:21:44;;;;;;;6.82;3.60;;;;;;;8.73;100.00;100780.22;5314836;27;20282;-79
2022/01/02 03:24:14;;;;;;;8.40;4.25;;;;;;;8.75;100.00;100796.69;5303541;27;20031;-79
2022/01/02 03:26:48;;;;;;;9.10;3.95;;;;;;;8.81;100.00;100793.06;5328686;27;20038;-79
2022/01/02 03:29:19;;;;;;;7.75;4.07;;;;;;;8.89;100.00;100785.94;5309540;27;20027;-78
2022/01/02 03:31:49;;;;;;;12.30;5.30;;;;;;;9.11;100.00;100777.53;5309904;27;20034;-78
2022/01/02 03:34:23;;;;;;;11.15;5.53;;;;;;;9.31;100.00;100783.06;5328151;27;20071;-79
2022/01/02 03:36:54;;;;;;;13.75;5.20;;;;;;;9.55;100.00;100778.03;5310293;27;20034;-79
2022/01/02 03:39:24;;;;;;;12.63;5.30;;;;;;;9.71;100.00;100768.88;5311130;27;20059;-78
2022/01/02 03:41:56;;;;;;;12.43;5.32;;;;;;;9.78;100.00;100759.94;5323753;27;20387;-79
2022/01/02 03:44:27;;;;;;;11.45;5.03;;;;;;;9.92;100.00;100763.00;5323193;27;20129;-79
2022/01/02 03:46:58;;;;;;;12.43;5.03;;;;;;;9.97;100.00;100766.31;5303008;28;20027;-79
2022/01/02 03:49:29;;;;;;;9.57;5.28;;;;;;;10.05;100.00;100766.13;5306606;28;20084;-79
2022/01/02 03:52:00;;;;;;;10.95;4.95;;;;;;;10.07;100.00;100761.72;5302007;28;20027;-79
2022/01/02 03:54:30;;;;;;;13.48;5.18;;;;;;;10.09;100.00;100755.53;5326644;27;20371;-79
2022/01/02 03:57:01;;;;;;;14.00;5.20;;;;;;;10.05;100.00;100737.41;5304650;22;20583;-79
2022/01/02 03:59:31;;;;;;;11.48;5.80;;;;;;;10.08;100.00;100732.94;5261328;28;20120;-79
2022/01/02 04:02:02;;;;;;;13.60;5.43;;;;;;;10.16;100.00;100714.44;5281513;28;20610;-79
2022/01/02 04:04:32;;;;;;;10.82;5.15;;;;;;;10.18;100.00;100720.47;5277043;28;20032;-79
2022/01/02 04:07:03;;;;;;;14.50;5.32;;;;;;;10.26;100.00;100721.06;5288855;28;20031;-79
2022/01/02 04:09:34;;;;;;;10.27;4.38;;;;;;;10.40;100.00;100718.84;5282322;28;20108;-79
2022/01/02 04:12:04;;;;;;;11.80;4.53;;;;;;;10.44;100.00;100720.47;5277059;28;20114;-80
2022/01/02 04:14:35;;;;;;;9.40;3.97;;;;;;;10.53;100.00;100725.41;5288995;28;20020;-80
2022/01/02 04:17:05;;;;;;;9.25;4.20;;;;;;;10.55;100.00;100719.19;5288769;28;20027;-80
2022/01/02 04:19:35;;;;;;;10.32;4.53;;;;;;;10.64;100.00;100708.44;5276095;28;20047;-80
2022/01/02 04:22:06;;;;;;;9.10;4.05;;;;;;;10.63;100.00;100711.09;5284784;28;20057;-80
2022/01/02 04:24:36;;;;;;;9.80;3.85;;;;;;;10.61;100.00;100707.69;5283960;28;20424;-80
2022/01/02 04:27:06;;;;;;;9.07;4.10;;;;;;;10.65;100.00;100694.47;5258558;28;20039;-80
2022/01/02 04:29:36;;;;;;;7.57;4.00;;;;;;;10.66;100.00;100684.88;5290698;28;20095;-80
2022/01/02 04:32:07;;;;;;;7.78;3.85;;;;;;;10.63;100.00;100670.16;5288844;28;20035;-80
2022/01/02 04:34:37;;;;;;;7.78;3.53;;;;;;;10.69;100.00;100656.88;5292226;28;20038;-80
2022/01/02 04:37:08;;;;;;;9.18;3.70;;;;;;;10.81;100.00;100653.84;5292812;28;20024;-80
2022/01/02 04:39:40;;;;;;;8.13;3.80;;;;;;;10.75;100.00;100659.28;5282203;28;20023;-80
2022/01/02 04:42:10;;;;;;;7.82;3.50;;;;;;;10.77;100.00;100659.22;5285809;28;20635;-80
2022/01/02 04:44:40;;;;;;;8.48;3.85;;;;;;;10.67;100.00;100650.84;5292690;28;20035;-80
2022/01/02 04:47:11;;;;;;;6.85;3.80;;;;;;;10.66;100.00;100653.53;5292009;28;20027;-80
2022/01/02 04:49:41;;;;;;;7.70;3.80;;;;;;;10.69;100.00;100653.41;5278693;28;20059;-80
2022/01/02 04:52:11;;;;;;;8.38;3.85;;;;;;;10.74;100.00;100651.47;5288301;28;20023;-80
2022/01/02 04:54:42;;;;;;;9.02;3.85;;;;;;;10.75;100.00;100653.19;5288776;28;20040;-80
2022/01/02 04:57:12;;;;;;;8.70;3.80;;;;;;;10.78;100.00;100647.84;5278830;28;20073;-80
2022/01/02 04:59:42;;;;;;;7.63;3.67;;;;;;;10.76;100.00;100653.16;5291903;28;20384;-80
2022/01/02 05:02:12;;;;;;;7.53;4.10;;;;;;;10.78;100.00;100642.63;5292568;28;20027;-80
2022/01/02 05:04:43;;;;;;;7.82;4.03;;;;;;;10.92;100.00;100628.16;5291788;28;20038;-80
2022/01/02 05:07:14;;;;;;;11.02;3.90;;;;;;;10.87;100.00;100622.22;5278541;28;20028;-80
2022/01/02 05:09:44;;;;;;;10.02;3.60;;;;;;;10.95;100.00;100619.34;5288277;28;20547;-80
2022/01/02 05:12:14;;;;;;;9.57;3.50;;;;;;;10.94;100.00;100621.13;5280320;28;20114;-80
2022/01/02 05:14:45;;;;;;;11.00;4.00;;;;;;;10.97;100.00;100618.38;5285469;28;20028;-80
2022/01/02 05:17:15;;;;;;;7.72;3.50;;;;;;;10.88;100.00;100625.72;5291927;28;20027;-80
2022/01/02 05:19:45;;;;;;;9.70;3.92;;;;;;;10.80;100.00;100628.59;5292086;28;20392;-80
2022/01/02 05:22:16;;;;;;;7.43;3.70;;;;;;;10.91;100.00;100633.44;5286846;28;20031;-80
2022/01/02 05:24:46;;;;;;;6.85;3.75;;;;;;;10.89;100.00;100633.47;5278119;28;20356;-80
2022/01/02 05:27:16;;;;;;;7.63;3.53;;;;;;;10.96;100.00;100621.91;5282094;28;20027;-80
2022/01/02 05:29:47;;;;;;;9.55;4.10;;;;;;;11.00;100.00;100633.13;5278518;28;20055;-80
2022/01/02 05:32:17;;;;;;;9.85;4.00;;;;;;;10.87;100.00;100624.00;5273974;28;20461;-80
2022/01/02 05:34:47;;;;;;;6.68;3.28;;;;;;;11.02;100.00;100628.69;5290966;28;20034;-80
2022/01/02 05:37:17;;;;;;;10.18;3.88;;;;;;;10.94;100.00;100622.88;5273316;28;20160;-79
2022/01/02 05:39:48;;;;;;;6.28;3.40;;;;;;;10.98;100.00;100619.22;5291527;28;20102;-80
2022/01/02 05:42:18;;;;;;;7.95;3.63;;;;;;;11.03;100.00;100618.16;5284385;28;20028;-79
2022/01/02 05:44:48;;;;;;;9.27;3.70;;;;;;;11.04;100.00;100620.72;5278275;28;20047;-79
2022/01/02 05:47:19;;;;;;;10.30;3.80;;;;;;;11.16;100.00;100609.81;5291447;28;20034;-80
2022/01/02 05:49:49;;;;;;;7.65;3.80;;;;;;;11.20;100.00;100598.31;5291316;28;20817;-80
2022/01/02 05:52:19;;;;;;;9.43;3.40;;;;;;;11.21;100.00;100600.03;5290714;28;20042;-80
2022/01/02 05:54:49;;;;;;;10.35;4.05;;;;;;;11.20;100.00;100606.16;5286399;28;20015;-78
2022/01/02 05:57:20;;;;;;;8.38;3.67;;;;;;;11.27;100.00;100601.56;5282674;28;20024;-78
2022/01/02 05:59:50;;;;;;;7.70;3.00;;;;;;;11.27;100.00;100589.31;5275754;28;20027;-80
2022/01/02 06:02:20;;;;;;;8.00;3.45;;;;;;;11.32;100.00;100574.31;5285604;28;20083;-80
2022/01/02 06:04:51;;;;;;;9.15;3.75;;;;;;;11.24;100.00;100586.81;5276539;28;20055;-80
2022/01/02 06:07:21;;;;;;;8.43;4.07;;;;;;;11.25;100.00;100578.06;5286166;28;20035;-80
2022/01/02 06:09:51;;;;;;;9.35;3.53;;;;;;;11.16;100.00;100573.19;5274796;28;20521;-80
2022/01/02 06:12:23;;;;;;;8.48;4.03;;;;;;;11.17;100.00;100558.34;5290807;28;20023;-80
2022/01/02 06:14:53;;;;;;;12.02;4.68;;;;;;;11.12;100.00;100555.88;5272265;28;20027;-80
2022/01/02 06:17:23;;;;;;;9.73;4.50;;;;;;;11.14;100.00;100551.44;5291004;28;20027;-80
2022/01/02 06:19:54;;;;;;;9.48;4.32;;;;;;;11.15;100.00;100554.94;5290746;28;20287;-80
2022/01/02 06:22:24;;;;;;;8.25;3.83;;;;;;;11.20;100.00;100551.25;5288091;28;20106;-80
2022/01/02 06:24:54;;;;;;;7.72;3.78;;;;;;;11.09;100.00;100563.84;5274749;28;20036;-80
2022/01/02 06:27:25;;;;;;;7.65;3.42;;;;;;;11.24;100.00;100565.91;5282846;28;20812;-80
2022/01/02 06:29:55;;;;;;;9.63;3.95;;;;;;;11.16;100.00;100562.72;5291290;28;20361;-80
2022/01/02 06:32:25;;;;;;;7.73;3.83;;;;;;;11.21;100.00;100560.78;5290200;28;20034;-80
2022/01/02 06:34:55;;;;;;;8.20;3.35;;;;;;;11.12;100.00;100560.28;5291411;28;20311;-80
2022/01/02 06:37:26;;;;;;;10.45;3.63;;;;;;;11.27;100.00;100568.38;5286547;28;20654;-80
2022/01/02 06:39:56;;;;;;;11.38;3.92;;;;;;;11.27;100.00;100564.94;5275650;28;20024;-80
2022/01/02 06:42:26;;;;;;;9.18;4.38;;;;;;;11.34;100.00;100559.41;5290892;28;20538;-80
2022/01/02 06:44:56;;;;;;;11.30;3.70;;;;;;;11.24;100.00;100559.81;5289790;28;20036;-80
2022/01/02 06:47:27;;;;;;;6.78;3.50;;;;;;;11.18;100.00;100547.84;5290004;28;20500;-80
2022/01/02 06:49:57;;;;;;;12.45;3.60;;;;;;;11.18;100.00;100554.81;5289973;28;20035;-80
2022/01/02 06:52:27;;;;;;;10.93;3.35;;;;;;;11.29;100.00;100556.09;5289464;28;20055;-80
2022/01/02 06:54:58;;;;;;;7.43;3.42;;;;;;;11.22;100.00;100562.50;5282681;28;20039;-80
2022/01/02 06:57:28;;;;;;;10.82;3.42;;;;;;;11.27;100.00;100568.38;5278373;28;20110;-80
2022/01/02 06:59:58;;;;;;;8.82;3.45;;;;;;;11.27;100.00;100575.41;5290314;28;20259;-80
2022/01/02 07:02:28;;;;;;;10.65;3.53;;;;;;;11.36;100.00;100567.19;5281371;28;20486;-80
2022/01/02 07:04:59;;;;;;;9.57;3.40;;;;;;;11.37;100.00;100566.25;5278011;28;20028;-80
2022/01/02 07:07:30;;;;;;;9.25;3.20;;;;;;;11.33;100.00;100567.31;5289468;28;20469;-80
2022/01/02 07:10:00;;;;;;;6.38;3.22;;;;;;;11.37;100.00;100563.66;5280630;28;20039;-80
2022/01/02 07:12:30;;;;;;;8.32;3.00;;;;;;;11.46;100.00;100555.44;5281601;28;20027;-79
2022/01/02 07:15:01;;;;;;;7.90;2.90;;;;;;;11.39;100.00;100553.97;5290352;28;20027;-80
2022/01/02 07:17:31;;;;;;;9.80;2.83;;;;;;;11.37;100.00;100551.44;5289014;28;20020;-80
2022/01/02 07:20:06;;;;;;;7.43;3.28;;;;;;;11.35;100.00;100550.66;5275992;28;20027;-80
2022/01/02 07:22:37;;;;;;;9.18;2.83;;;;;;;11.28;100.00;100551.78;5285499;28;20033;-80
2022/01/02 07:25:09;;;;;;;7.32;3.50;;;;;;;11.23;100.00;100547.63;5274195;28;20023;-80
2022/01/02 07:27:39;;;;;;;10.43;3.70;;;;;;;11.14;100.00;100542.75;5284926;28;20034;-80
2022/01/02 07:30:10;;;;;;;8.32;3.80;;;;;;;11.12;100.00;100545.44;5273793;28;20031;-80
2022/01/02 07:32:41;;;;;;;7.20;3.10;;;;;;;11.12;100.00;100540.19;5288440;28;20397;-80
2022/01/02 07:35:11;;;;;;;7.35;2.97;;;;;;;11.17;100.00;100535.66;5272290;28;20047;-80
2022/01/02 07:37:42;;;;;;;7.88;3.13;;;;;;;11.16;100.00;100546.16;5288787;28;20050;-80
2022/01/02 07:40:12;;;;;;;7.38;2.97;;;;;;;11.21;100.00;100534.63;5277837;28;20027;-80
2022/01/02 07:42:42;;;;;;;7.68;3.20;;;;;;;11.21;100.00;100529.41;5282800;28;20034;-80
2022/01/02 07:45:13;;;;;;;6.57;2.95;;;;;;;11.22;100.00;100531.09;5289021;28;20091;-80
2022/01/02 07:47:43;;;;;;;9.02;3.38;;;;;;;11.16;100.00;100520.88;5279053;28;20425;-80
2022/01/02 07:50:14;;;;;;;7.70;3.58;;;;;;;11.15;100.00;100513.94;5278820;28;20023;-80
2022/01/02 07:52:44;;;;;;;7.40;3.30;;;;;;;11.17;100.00;100512.13;5281604;28;20521;-80
2022/01/02 07:55:15;;;;;;;8.27;3.17;;;;;;;11.22;100.00;100517.16;5272984;28;20032;-80
2022/01/02 07:57:45;;;;;;;10.48;3.30;;;;;;;11.31;100.00;100515.03;5284592;28;20523;-80
2022/01/02 08:00:17;;;;;;;7.22;3.08;;;;;;;11.29;100.00;100516.84;5294220;28;20036;-80
2022/01/02 08:02:47;;;;;;;7.30;3.15;;;;;;;11.33;100.00;100523.69;5289596;28;20394;-80
2022/01/02 08:05:17;;;;;;;7.53;2.90;;;;;;;11.41;100.00;100524.22;5277417;28;20031;-80
2022/01/02 08:07:47;;;;;;;8.82;2.80;;;;;;;11.33;100.00;100514.97;5290198;28;20050;-80
2022/01/02 08:10:18;;;;;;;9.52;3.38;;;;;;;11.27;100.00;100508.22;5276834;28;20477;-80
2022/01/02 08:12:48;;;;;;;7.88;3.05;;;;;;;11.33;100.00;100504.50;5292489;28;20059;-80
2022/01/02 08:15:19;;;;;;;6.13;2.73;;;;;;;11.32;100.00;100510.66;5277905;28;20039;-80
2022/01/02 08:17:49;;;;;;;6.93;2.92;;;;;;;11.30;100.00;100502.03;5289651;28;20285;-80
2022/01/02 08:20:19;;;;;;;7.45;2.80;;;;;;;11.31;100.00;100504.56;5292363;28;20034;-80
2022/01/02 08:22:50;;;;;;;5.22;2.42;;;;;;;11.36;100.00;100509.63;5292308;28;20039;-80
2022/01/02 08:25:20;;;;;;;7.57;2.85;;;;;;;11.48;100.00;100496.88;5282193;28;20024;-80
2022/01/02 08:27:50;;;;;;;7.70;3.20;;;;;;;11.47;100.00;100484.72;5279188;28;20183;-80
2022/01/02 08:30:21;;;;;;;7.20;2.90;;;;;;;11.50;100.00;100471.53;5279441;28;20706;-80
2022/01/02 08:32:51;;;;;;;10.80;3.10;;;;;;;11.57;100.00;100467.78;5291818;28;20130;-80
2022/01/02 08:35:22;;;;;;;7.82;3.13;;;;;;;11.55;100.00;100461.72;5279010;28;20459;-80
2022/01/02 08:37:52;;;;;;;7.20;2.78;;;;;;;11.53;100.00;100447.84;5288948;28;20053;-80
2022/01/02 08:40:22;;;;;;;9.40;2.90;;;;;;;11.58;100.00;100450.31;5279088;28;20043;-80
2022/01/02 08:42:53;;;;;;;7.75;2.92;;;;;;;11.66;100.00;100448.22;5291928;28;20059;-80
2022/01/02 08:45:23;;;;;;;10.27;2.78;;;;;;;11.69;100.00;100443.72;5278061;28;20027;-80
2022/01/02 08:47:53;;;;;;;6.35;2.80;;;;;;;11.78;100.00;100437.22;5290034;28;20046;-80
2022/01/02 08:50:24;;;;;;;6.38;2.80;;;;;;;11.77;100.00;100446.00;5291305;28;20370;-80
2022/01/02 08:52:54;;;;;;;8.27;2.90;;;;;;;11.78;100.00;100432.81;5291835;28;20038;-79
2022/01/02 08:55:24;;;;;;;7.03;3.00;;;;;;;11.76;100.00;100432.03;5281938;28;20364;-80
2022/01/02 08:57:55;;;;;;;8.93;2.90;;;;;;;11.85;100.00;100421.19;5279243;28;20063;-80
2022/01/02 09:00:25;;;;;;;6.78;2.70;;;;;;;11.96;100.00;100405.84;5275144;28;20654;-80
2022/01/02 09:02:55;;;;;;;7.03;2.78;;;;;;;11.91;100.00;100414.81;5290275;28;20086;-80
2022/01/02 09:05:27;;;;;;;8.10;2.63;;;;;;;11.95;100.00;100398.06;5275660;28;20028;-80
2022/01/02 09:07:57;;;;;;;6.95;2.65;;;;;;;12.05;100.00;100399.34;5287702;28;20031;-80
2022/01/02 09:10:28;;;;;;;6.57;2.40;;;;;;;11.94;100.00;100391.97;5260264;28;20028;-80
2022/01/02 09:12:58;;;;;;;5.88;2.40;;;;;;;11.93;100.00;100385.03;5284155;28;20084;-80
2022/01/02 09:15:29;;;;;;;8.15;2.70;;;;;;;12.01;100.00;100369.84;5276329;28;20024;-79
2022/01/02 09:17:59;;;;;;;8.27;2.60;;;;;;;11.98;100.00;100349.00;5276753;28;20390;-80
2022/01/02 09:20:29;;;;;;;9.02;2.90;;;;;;;11.98;100.00;100346.38;5278437;28;20028;-80
2022/01/02 09:23:00;;;;;;;5.32;2.28;;;;;;;12.00;100.00;100339.34;5272267;28;20031;-80
2022/01/02 09:25:30;;;;;;;5.45;2.40;;;;;;;11.94;100.00;100333.53;5269641;28;20073;-80
2022/01/02 09:28:00;;;;;;;7.65;2.58;;;;;;;11.87;100.00;100332.94;5270073;28;20085;-80
2022/01/02 09:30:31;;;;;;;9.25;3.53;;;;;;;11.84;100.00;100333.09;5272632;28;20111;-81
2022/01/02 09:33:03;;;;;;;8.52;3.28;;;;;;;11.89;100.00;100338.97;5287171;28;20027;-84
2022/01/02 09:35:33;;;;;;;9.85;2.83;;;;;;;11.84;100.00;100337.47;5267933;28;20018;-84
2022/01/02 09:38:04;;;;;;;5.88;2.30;;;;;;;11.83;100.00;100328.78;5265856;28;20458;-85
2022/01/02 09:40:35;;;;;;;6.32;2.60;;;;;;;11.88;100.00;100320.69;5282528;28;20657;-77
2022/01/02 09:43:06;;;;;;;5.63;2.70;;;;;;;11.91;100.00;100303.06;5268901;28;20036;-82
2022/01/02 09:45:38;;;;;;;8.55;2.60;;;;;;;12.06;100.00;100304.13;5286975;28;20031;-78
2022/01/02 09:48:09;;;;;;;6.22;2.50;;;;;;;11.96;100.00;100306.31;5286733;28;20715;-76
2022/01/02 09:50:39;;;;;;;8.32;2.55;;;;;;;11.85;100.00;100303.38;5279183;28;20023;-77
2022/01/02 09:53:10;;;;;;;5.72;2.35;;;;;;;11.82;100.00;100282.53;5269243;28;20062;-77
2022/01/02 09:55:40;;;;;;;7.60;2.63;;;;;;;12.02;100.00;100294.72;5275375;28;20041;-77
2022/01/02 09:58:12;;;;;;;5.57;2.40;;;;;;;11.94;100.00;100292.44;5210663;22;20075;-79
2022/01/02 10:00:45;;;;;;;7.10;2.60;;;;;;;11.93;100.00;100306.47;5177570;28;20022;-77
2022/01/02 10:03:17;;;;;;;6.28;2.63;;;;;;;11.89;100.00;100311.91;5201568;28;20026;-79
2022/01/02 10:05:59;;;;;;;7.10;2.78;;;;;;;11.95;100.00;100312.47;5168980;28;20104;-80
2022/01/02 10:08:35;;;;;;;4.82;2.35;;;;;;;12.07;100.00;100296.22;5228601;28;20217;-81
2022/01/02 10:11:24;;;;;;;5.95;2.58;;;;;;;12.14;100.00;100295.00;5229355;28;20026;-78
2022/01/02 10:14:02;;;;;;;6.85;2.42;;;;;;;12.23;100.00;100285.88;5161123;28;20156;-77
2022/01/02 10:16:33;;;;;;;5.65;2.47;;;;;;;12.25;100.00;100297.97;5226280;28;20034;-76
2022/01/02 10:19:26;;;;;;;5.22;2.42;;;;;;;12.37;100.00;100276.44;5242893;28;20030;-80
2022/01/02 10:21:59;;;;;;;5.70;1.90;;;;;;;12.46;100.00;100276.00;5225508;28;20251;-80
2022/01/02 10:24:36;;;;;;;5.75;2.17;;;;;;;12.40;100.00;100276.31;5226315;28;20022;-78
2022/01/02 10:27:11;;;;;;;6.10;2.35;;;;;;;12.36;100.00;100261.66;5162873;28;20086;-81
2022/01/02 10:29:56;;;;;;;7.93;2.20;;;;;;;12.47;100.00;100259.34;5229705;28;20052;-78
2022/01/02 10:32:27;;;;;;;4.40;2.08;;;;;;;12.44;100.00;100259.50;5162074;28;20078;-79
2022/01/02 10:35:17;;;;;;;6.20;1.98;;;;;;;12.44;100.00;100240.31;5231332;28;20054;-81
2022/01/02 10:37:54;;;;;;;9.10;2.15;;;;;;;12.37;100.00;100234.53;5229261;28;20076;-81
2022/01/02 10:40:28;;;;;;;5.32;2.00;;;;;;;12.33;100.00;100219.84;5204951;28;20129;-80
2022/01/02 10:43:00;;;;;;;6.72;2.08;;;;;;;12.35;100.00;100210.16;5227161;28;20121;-81
2022/01/02 10:45:47;;;;;;;4.95;1.80;;;;;;;12.37;100.00;100197.84;5230011;28;20082;-79
2022/01/02 10:48:29;;;;;;;4.20;2.15;;;;;;;12.32;100.00;100186.72;5228051;28;20109;-79
2022/01/02 10:50:59;;;;;;;6.00;1.77;;;;;;;12.47;100.00;100187.75;5251754;28;20034;-81
2022/01/02 10:54:09;;;;;;;5.75;1.60;;;;;;;12.53;100.00;100174.31;5234753;28;20034;-79
2022/01/02 10:57:16;;;;;;;4.45;1.75;;;;;;;12.50;100.00;100164.84;5165614;28;20538;-78
2022/01/02 10:59:47;;;;;;;4.93;1.85;;;;;;;12.50;100.00;100159.59;5164977;28;20033;-80
2022/01/02 11:02:17;;;;;;;4.95;1.80;;;;;;;12.41;100.00;100157.44;5229754;28;20019;-78
2022/01/02 11:04:53;;;;;;;5.82;1.98;;;;;;;12.37;100.00;100152.41;5223933;28;20038;-79
2022/01/02 11:07:24;;;;;;;7.35;1.90;;;;;;;12.39;100.00;100143.56;5225019;28;20311;-76
2022/01/02 11:09:55;;;;;;;6.55;2.20;;;;;;;12.46;100.00;100139.72;5228876;28;20041;-80
2022/01/02 11:12:26;;;;;;;6.85;2.45;;;;;;;12.49;100.00;100130.84;5226839;28;20034;-79
2022/01/02 11:14:57;;;;;;;4.93;1.95;;;;;;;12.61;100.00;100125.84;5227653;28;20719;-79
2022/01/02 11:17:28;;;;;;;6.28;1.77;;;;;;;12.59;100.00;100117.19;5227541;28;20030;-77
2022/01/02 11:20:06;;;;;;;4.88;1.80;;;;;;;12.61;100.00;100110.09;5227610;28;20471;-80
2022/01/02 11:22:44;;;;;;;6.18;2.10;;;;;;;12.68;100.00;100108.88;5159581;28;20030;-78
2022/01/02 11:25:52;;;;;;;4.22;1.70;;;;;;;12.73;100.00;100096.38;5219941;28;20034;-81
2022/01/02 11:28:25;;;;;;;6.03;1.75;;;;;;;12.70;100.00;100093.91;5240595;28;20034;-79
2022/01/02 11:30:57;;;;;;;5.63;1.70;;;;;;;12.68;100.00;100089.66;5159456;28;20022;-80
2022/01/02 11:33:40;;;;;;;4.88;1.60;;;;;;;12.70;100.00;100075.56;5220451;28;20023;-79
2022/01/02 11:36:34;;;;;;;6.07;2.05;;;;;;;12.60;100.00;100076.94;5162005;28;20037;-81
2022/01/02 11:39:09;;;;;;;5.03;1.80;;;;;;;12.70;100.00;100057.22;5226852;28;20032;-80
2022/01/02 11:41:42;;;;;;;7.27;1.87;;;;;;;12.73;100.00;100037.81;5225384;28;20718;-80
2022/01/02 11:44:18;;;;;;;9.65;1.75;;;;;;;12.79;100.00;100033.09;5226175;28;20053;-81
2022/01/02 11:46:56;;;;;;;5.00;1.80;;;;;;;12.88;100.00;100040.50;5159249;28;20109;-78
2022/01/02 11:49:38;;;;;;;7.18;1.60;;;;;;;13.01;100.00;100037.16;5223165;28;20080;-79
2022/01/02 11:52:23;;;;;;;5.10;1.42;;;;;;;13.06;100.00;100018.56;5225929;28;20076;-79
2022/01/02 11:54:55;;;;;;;4.88;1.48;;;;;;;13.25;100.00;100006.13;5233064;28;20026;-80